Etusivu
METAR-TAF:

METAR-TAF

Lentoasemat :

Agen, Ranska

Leveyspiiri: 44-11N, Pituuspiiri: 000-36E, korkeus merenpinnasta: 61 m

Tämänhetkinen sää

Tämä raportti tehtiin 42 minuuttia sitten, kello 12.00 UTC
Tuuli 5 kn eri suunnista
Lämpötila 21°C
Kosteus 33%
Ilmanpaine 1028 hPa
Näkyvyys 10 km tai enemmän
ei pilviä alle 1500 m:ssä eikä cumulonimbus-pilviä

METAR: LFBA 251200Z AUTO VRB05KT CAVOK 21/04 Q1028 NOSIG

Aika: 14:42 (12:42 UTC)

Sääennuste

Tämä raportti tehtiin 1 tunti ja 42 minuuttia sitten, kello 11.00 UTC
Ennuste voimassa 25. päivästä klo 12 UTC - 25. päivään klo 21 UTC
Tuuli 2 kn eri suunnista
Näkyvyys 10 km tai enemmän
ei pilviä alle 1500 m:ssä eikä cumulonimbus-pilviä

TAF: LFBA 251100Z 2512/2521 VRB02KT CAVOK

Säähavainnot ja -ennusteet yli 4000 lentoasemalta (METAR- ja TAF-raportit).

Käytössä olevat sääasemat on merkitty karttaan keltaisilla ja punaisilla pisteillä.

Aseta hiiri pisteen päälle nähdäksesi sääaseman nimen.

Klikkaa sitten nähdäksesi säähavainnot ja -ennusteet.

Kartan vaihtaminen: klikkaa mustalla rastilla varustettuja vihreitä pisteitä, niin voit zoomata sisään; viivalla varustettua vihreää pistettä, niin voit zoomata ulos tai vihreitä nuolia, niin pääset viereisille kartoille.


METAR-TAF: